Flight Track Log - Related Links

Times and Time Zones

All times are in EDT time to prevent confusion due to time zone crossing. See the N1673T flight status page for this flight to view local times or setup timezone preferences in your user account.


Time Position Orientation Groundspeed Altitude Reporting Facility
EDT Latitude Longitude Course Direction KTS MPH feet Rate Location/Type
Mon 05:37:09 PM 45.2853 -85.3622 247° West 119 137 2,800  Level Minneapolis Center
Mon 05:38:11 PM 45.2728 -85.4019 246° West 112 129 3,800 829 Climbing Minneapolis Center
Mon 05:39:12 PM 45.2594 -85.4339 239° Southwest 114 131 4,500 1,016 Climbing Minneapolis Center
Mon 05:40:15 PM 45.2422 -85.4839 244° Southwest 117 135 5,900 1,152 Climbing Minneapolis Center
Mon 05:41:17 PM 45.2308 -85.5292 250° West 118 136 6,900 1,016 Climbing Minneapolis Center
Mon 05:42:00 PM 45.2156 -85.5480 247° West  Level FlightAware Approximate
Mon 05:42:19 PM 45.2156 -85.5867 249° West 124 143 8,000  Level Minneapolis Center
Mon 05:43:21 PM 45.2019 -85.6344 248° West 128 147 9,000 919 Climbing Minneapolis Center
Mon 05:44:23 PM 45.1894 -85.6811 249° West 128 147 9,900 823 Climbing Minneapolis Center
Mon 05:45:25 PM 45.1756 -85.7317 249° West 132 152 10,700 768 Climbing Minneapolis Center
Mon 05:46:28 PM 45.1603 -85.7858 248° West 142 163 11,500 576 Climbing Minneapolis Center
Mon 05:47:30 PM 45.1450 -85.8425 249° West 150 173 11,900 194 Climbing Minneapolis Center
Mon 05:48:32 PM 45.1250 -85.9197 250° West 168 193 11,900 48 Level Minneapolis Center
Mon 05:49:34 PM 45.1067 -85.9856 248° West 178 205 12,000  Climbing Minneapolis Center
Mon 05:50:36 PM 45.0886 -86.0506 249° West 180 207 11,900 -44 Descending Minneapolis Center
Mon 05:51:50 PM 45.0708 -86.1156 249° West 179 206 11,900  Level Minneapolis Center
Mon 05:52:53 PM 45.0453 -86.2072 248° West 181 208 11,900  Level Minneapolis Center
Mon 05:53:55 PM 45.0269 -86.2725 248° West 180 207 11,900  Level Minneapolis Center
Mon 05:54:57 PM 45.0083 -86.3378 248° West 180 207 11,900  Level Minneapolis Center
Mon 05:55:59 PM 44.9900 -86.4036 249° West 182 209 11,900  Level Minneapolis Center
Mon 05:57:01 PM 44.9711 -86.4681 248° West 179 206 11,900  Level Minneapolis Center
Mon 05:58:03 PM 44.9486 -86.5472 248° West 180 207 11,900  Level Minneapolis Center
Mon 05:59:18 PM 44.9258 -86.6242 247° West 179 206 11,900  Level Minneapolis Center
Mon 06:00:20 PM 44.9078 -86.6894 249° West 179 206 11,900  Level Minneapolis Center
Mon 06:01:34 PM 44.8894 -86.7544 248° West 179 206 11,900 -88 Level Minneapolis Center
Mon 06:02:36 PM 44.8669 -86.8350 249° West 184 212 11,700 -384 Descending Minneapolis Center
Mon 06:03:39 PM 44.8425 -86.9169 247° West 189 217 11,100 -480 Descending Minneapolis Center
Mon 06:04:41 PM 44.8236 -86.9861 249° West 190 219 10,700 -484 Descending Minneapolis Center
Mon 06:05:43 PM 44.8031 -87.0536 247° West 189 217 10,100 -581 Descending Minneapolis Center
Mon 06:06:45 PM 44.7844 -87.1236 249° West 190 219 9,500 -618 Descending Minneapolis Center
Mon 06:07:59 PM 44.7631 -87.1931 247° West 193 222 8,700 -706 Descending Minneapolis Center
Mon 06:09:01 PM 44.7578 -87.2631 264° West 179 206 7,900 -816 Descending Minneapolis Center
Mon 06:10:04 PM 44.7394 -87.3547 254° West 177 204 7,000 -657 Descending Minneapolis Center
Mon 06:11:18 PM 44.7217 -87.4200 249° West 180 207 6,400 -485 Descending Minneapolis Center
Mon 06:12:20 PM 44.6964 -87.4928 244° Southwest 174 200 5,900 -532 Descending Minneapolis Center
Mon 06:13:22 PM 44.6764 -87.5556 246° West 176 203 5,300 -532 Descending Minneapolis Center
Mon 06:14:24 PM 44.6564 -87.6161 245° Southwest 173 199 4,800 -480 Descending Minneapolis Center
Mon 06:15:27 PM 44.6319 -87.6867 244° Southwest 169 194 4,300 -336 Descending Minneapolis Center
Mon 06:16:29 PM 44.6119 -87.7467 245° Southwest 171 197 4,100 -290 Descending Minneapolis Center
Mon 06:17:31 PM 44.5933 -87.8064 246° West 170 196 3,700 -339 Descending Minneapolis Center
Mon 06:18:33 PM 44.5733 -87.8642 244° Southwest 168 193 3,400 -387 Descending Minneapolis Center
Mon 06:19:35 PM 44.5494 -87.9247 241° Southwest 167 192 2,900 -339 Descending Minneapolis Center
Mon 06:20:37 PM 44.5314 -87.9772 244° Southwest 167 192 2,700 -194 Descending Minneapolis Center
Mon 06:22:00 PM 44.5036 -88.0564 244° Southwest  Level FlightAware Approximate

Login

Don't have an account? Register now (free) for customized features, flight alerts, and more!